createdAt,value
2022-12-14T00:00:30.195Z,100546.17
2022-12-14T00:02:59.913Z,100549.94
2022-12-14T00:05:30.122Z,100550.42
2022-12-14T00:07:59.658Z,100547.22
2022-12-14T00:10:29.244Z,100551.86
2022-12-14T00:12:59.216Z,100553.14
2022-12-14T00:15:29.065Z,100540.98
2022-12-14T00:17:58.350Z,100545.42
2022-12-14T00:20:28.337Z,100539.38
2022-12-14T00:22:57.900Z,100543.19
2022-12-14T00:25:27.718Z,100536.46
2022-12-14T00:27:57.129Z,100535.37
2022-12-14T00:30:26.899Z,100530.37
2022-12-14T00:32:56.123Z,100526.98
2022-12-14T00:35:25.458Z,100509.50
2022-12-14T00:37:54.702Z,100505.69
2022-12-14T00:40:23.978Z,100498.01
2022-12-14T00:42:53.574Z,100495.05
2022-12-14T00:45:22.821Z,100492.10
2022-12-14T00:47:52.102Z,100490.67
2022-12-14T00:50:21.339Z,100484.09
2022-12-14T00:52:50.834Z,100479.13
2022-12-14T00:55:20.113Z,100488.84
2022-12-14T00:57:49.358Z,100483.21
2022-12-14T01:00:18.721Z,100478.06
2022-12-14T01:02:48.016Z,100472.91
2022-12-14T01:05:18.065Z,100471.23
2022-12-14T01:07:48.785Z,100469.44
2022-12-14T01:10:18.713Z,100474.15
2022-12-14T01:12:48.183Z,100471.91
2022-12-14T01:15:17.934Z,100464.60
2022-12-14T01:17:47.370Z,100464.60
2022-12-14T01:20:16.595Z,100470.03
2022-12-14T01:22:46.224Z,100463.91
2022-12-14T01:25:15.781Z,100465.67
2022-12-14T01:27:46.072Z,100466.09
2022-12-14T01:30:16.790Z,100467.06
2022-12-14T01:32:46.502Z,100474.20
2022-12-14T01:35:15.770Z,100477.27
2022-12-14T01:37:45.057Z,100475.20
2022-12-14T01:40:15.967Z,100482.08
2022-12-14T01:42:45.487Z,100476.98
2022-12-14T01:45:23.032Z,100475.47
2022-12-14T01:47:57.712Z,100481.13
2022-12-14T01:50:34.480Z,100480.03
2022-12-14T01:53:12.743Z,100478.22
2022-12-14T01:55:45.246Z,100471.73
2022-12-14T01:58:21.354Z,100468.81
2022-12-14T02:00:55.208Z,100464.53
2022-12-14T02:03:27.776Z,100462.86
2022-12-14T02:06:00.552Z,100463.78
2022-12-14T02:08:30.675Z,100465.39
2022-12-14T02:11:00.613Z,100470.53
2022-12-14T02:13:33.258Z,100463.69
2022-12-14T02:16:02.805Z,100461.26
2022-12-14T02:18:33.680Z,100462.31
2022-12-14T02:21:25.013Z,100459.45
2022-12-14T02:24:12.678Z,100452.50
2022-12-14T02:27:08.634Z,100451.30
2022-12-14T02:29:58.158Z,100455.97
2022-12-14T02:32:57.697Z,100457.96
2022-12-14T02:35:53.059Z,100460.53
2022-12-14T02:38:28.454Z,100458.11
2022-12-14T02:41:17.979Z,100460.92
2022-12-14T02:44:08.180Z,100459.25
2022-12-14T02:46:50.619Z,100454.44
2022-12-14T02:49:28.362Z,100445.19
2022-12-14T02:52:03.811Z,100442.95
2022-12-14T02:54:54.812Z,100444.14
2022-12-14T02:57:29.336Z,100447.47
2022-12-14T03:00:01.749Z,100445.66
2022-12-14T03:02:31.989Z,100448.23
2022-12-14T03:05:02.236Z,100439.42
2022-12-14T03:07:49.011Z,100437.87
2022-12-14T03:10:37.988Z,100445.77
2022-12-14T03:13:28.925Z,100442.61
2022-12-14T03:16:07.577Z,100446.86
2022-12-14T03:18:40.103Z,100440.63
2022-12-14T03:21:12.067Z,100429.52
2022-12-14T03:23:43.585Z,100427.85
2022-12-14T03:26:21.647Z,100429.84
2022-12-14T03:29:00.244Z,100426.46
2022-12-14T03:31:41.892Z,100422.98
2022-12-14T03:34:14.031Z,100417.34
2022-12-14T03:36:58.635Z,100414.54
2022-12-14T03:39:31.042Z,100413.30
2022-12-14T03:42:15.448Z,100407.59
2022-12-14T03:44:49.495Z,100408.81
2022-12-14T03:47:24.280Z,100399.47
2022-12-14T03:50:02.530Z,100391.85
2022-12-14T03:52:37.115Z,100385.95
2022-12-14T03:55:36.370Z,100384.02
2022-12-14T03:58:14.626Z,100392.81
2022-12-14T04:00:47.358Z,100378.92
2022-12-14T04:03:40.424Z,100377.36
2022-12-14T04:06:15.953Z,100377.74
2022-12-14T04:08:57.238Z,100370.30
2022-12-14T04:11:47.395Z,100373.13
2022-12-14T04:14:37.632Z,100361.12
2022-12-14T04:17:33.901Z,100354.58
2022-12-14T04:20:06.383Z,100354.63
2022-12-14T04:22:39.455Z,100350.77
2022-12-14T04:25:30.260Z,100357.27
2022-12-14T04:28:03.291Z,100350.88
2022-12-14T04:30:34.858Z,100345.23
2022-12-14T04:33:08.580Z,100344.91
2022-12-14T04:35:41.124Z,100342.28
2022-12-14T04:38:16.463Z,100336.39
2022-12-14T04:40:48.868Z,100333.70
2022-12-14T04:43:21.434Z,100331.08
2022-12-14T04:45:53.437Z,100331.92
2022-12-14T04:48:38.121Z,100330.00
2022-12-14T04:51:22.654Z,100328.33
2022-12-14T04:53:54.401Z,100331.23
2022-12-14T04:56:26.743Z,100330.44
2022-12-14T04:58:55.631Z,100329.16
2022-12-14T05:01:42.911Z,100329.05
2022-12-14T05:04:24.763Z,100331.34
2022-12-14T05:07:18.918Z,100331.56
2022-12-14T05:09:55.038Z,100325.13
2022-12-14T05:12:39.528Z,100321.63
2022-12-14T05:15:11.806Z,100323.45
2022-12-14T05:17:40.598Z,100326.98
2022-12-14T05:20:19.383Z,100325.23
2022-12-14T05:22:49.973Z,100318.03
2022-12-14T05:25:19.208Z,100310.91
2022-12-14T05:27:48.812Z,100313.06
2022-12-14T05:30:18.203Z,100304.91
2022-12-14T05:32:47.602Z,100309.13
2022-12-14T05:35:17.145Z,100306.55
2022-12-14T05:37:46.718Z,100308.03
2022-12-14T05:40:18.015Z,100314.08
2022-12-14T05:42:52.345Z,100307.80
2022-12-14T05:45:18.683Z,100307.75
2022-12-14T05:47:48.280Z,100306.08
2022-12-14T05:50:17.953Z,100310.53
2022-12-14T05:52:47.203Z,100315.20
2022-12-14T05:55:16.543Z,100318.36
2022-12-14T05:57:46.019Z,100311.06
2022-12-14T06:00:16.308Z,100307.41
2022-12-14T06:02:45.888Z,100311.83
2022-12-14T06:05:15.348Z,100311.06
2022-12-14T06:07:44.631Z,100305.22
2022-12-14T06:10:13.914Z,100308.07
2022-12-14T06:12:43.920Z,100306.78
2022-12-14T06:15:14.086Z,100306.94
2022-12-14T06:17:47.172Z,100307.41
2022-12-14T06:20:16.490Z,100299.79
2022-12-14T06:22:47.831Z,100303.65
2022-12-14T06:25:17.091Z,100298.19
2022-12-14T06:27:46.667Z,100299.34
2022-12-14T06:30:17.071Z,100307.22
2022-12-14T06:32:46.830Z,100303.05
2022-12-14T06:35:16.057Z,100305.66
2022-12-14T06:37:45.560Z,100306.20
2022-12-14T06:40:16.564Z,100307.69
2022-12-14T06:42:48.334Z,100310.88
2022-12-14T06:45:17.694Z,100303.31
2022-12-14T06:47:47.482Z,100307.36
2022-12-14T06:50:16.771Z,100305.84
2022-12-14T06:52:48.088Z,100311.17
2022-12-14T06:55:17.389Z,100310.97
2022-12-14T06:57:46.952Z,100313.30
2022-12-14T07:00:16.309Z,100313.99
2022-12-14T07:02:46.025Z,100314.31
2022-12-14T07:05:16.032Z,100307.38
2022-12-14T07:07:45.805Z,100305.00
2022-12-14T07:10:15.601Z,100311.79
2022-12-14T07:12:45.173Z,100318.33
2022-12-14T07:15:14.361Z,100310.72
2022-12-14T07:17:43.937Z,100310.31
2022-12-14T07:20:13.309Z,100313.94
2022-12-14T07:22:43.159Z,100313.28
2022-12-14T07:25:14.107Z,100308.23
2022-12-14T07:27:43.356Z,100298.95
2022-12-14T07:30:13.231Z,100301.20
2022-12-14T07:32:42.882Z,100306.21
2022-12-14T07:35:16.688Z,100309.20
2022-12-14T07:37:45.576Z,100309.70
2022-12-14T07:40:17.088Z,100314.95
2022-12-14T07:42:50.886Z,100321.25
2022-12-14T07:45:20.265Z,100321.20
2022-12-14T07:47:50.011Z,100320.39
2022-12-14T07:50:19.228Z,100321.83
2022-12-14T07:52:48.597Z,100325.92
2022-12-14T07:55:17.889Z,100334.00
2022-12-14T07:57:48.074Z,100331.20
2022-12-14T08:00:18.193Z,100338.89
2022-12-14T08:02:47.756Z,100349.04
2022-12-14T08:05:17.243Z,100354.09
2022-12-14T08:07:46.500Z,100352.06
2022-12-14T08:10:16.376Z,100355.02
2022-12-14T08:12:45.589Z,100354.55
2022-12-14T08:15:14.877Z,100355.72
2022-12-14T08:17:44.103Z,100353.39
2022-12-14T08:20:13.564Z,100346.63
2022-12-14T08:22:43.043Z,100351.02
2022-12-14T08:25:12.236Z,100350.55
2022-12-14T08:27:42.063Z,100352.37
2022-12-14T08:30:11.743Z,100349.81
2022-12-14T08:32:41.349Z,100349.31
2022-12-14T08:35:10.641Z,100349.34
2022-12-14T08:37:45.796Z,100348.34
2022-12-14T08:40:12.135Z,100348.61
2022-12-14T08:42:41.635Z,100350.05
2022-12-14T08:45:11.520Z,100354.71
2022-12-14T08:47:40.865Z,100353.78
2022-12-14T08:50:11.135Z,100355.41
2022-12-14T08:52:40.426Z,100359.69
2022-12-14T08:55:10.201Z,100362.45
2022-12-14T08:57:39.958Z,100365.09
2022-12-14T09:00:10.372Z,100373.60
2022-12-14T09:02:40.385Z,100371.31
2022-12-14T09:05:10.642Z,100372.78
2022-12-14T09:07:39.909Z,100370.91
2022-12-14T09:10:09.366Z,100371.12
2022-12-14T09:12:39.703Z,100365.85
2022-12-14T09:15:09.561Z,100368.41
2022-12-14T09:17:39.194Z,100373.20
2022-12-14T09:20:10.296Z,100372.55
2022-12-14T09:22:40.284Z,100372.47
2022-12-14T09:25:10.359Z,100365.30
2022-12-14T09:27:39.739Z,100362.77
2022-12-14T09:30:09.839Z,100361.73
2022-12-14T09:32:40.396Z,100362.78
2022-12-14T09:35:09.974Z,100365.13
2022-12-14T09:37:39.566Z,100373.50
2022-12-14T09:40:10.817Z,100370.75
2022-12-14T09:42:43.812Z,100369.58
2022-12-14T09:45:35.285Z,100376.31
2022-12-14T09:48:10.680Z,100378.82
2022-12-14T09:50:40.850Z,100371.53
2022-12-14T09:53:12.725Z,100374.19
2022-12-14T09:55:50.588Z,100375.25
2022-12-14T09:58:30.910Z,100381.14
2022-12-14T10:01:25.037Z,100381.55
2022-12-14T10:04:31.467Z,100385.65
2022-12-14T10:07:25.036Z,100386.83
2022-12-14T10:10:05.886Z,100392.14
2022-12-14T10:13:13.552Z,100396.58
2022-12-14T10:15:49.143Z,100395.78
2022-12-14T10:18:57.630Z,100389.19
2022-12-14T10:21:16.970Z,100385.70
2022-12-14T10:23:55.408Z,100382.28
2022-12-14T10:26:28.034Z,100390.45
2022-12-14T10:29:07.725Z,100387.95
2022-12-14T10:32:05.049Z,100379.36
2022-12-14T10:34:35.840Z,100369.99
2022-12-14T10:37:36.847Z,100377.97
2022-12-14T10:40:19.694Z,100382.63
2022-12-14T10:42:55.496Z,100377.36
2022-12-14T10:45:48.793Z,100376.37
2022-12-14T10:48:24.761Z,100383.98
2022-12-14T10:51:15.534Z,100384.17
2022-12-14T10:53:51.371Z,100384.31
2022-12-14T10:56:34.539Z,100376.32
2022-12-14T10:59:20.765Z,100377.62
2022-12-14T11:01:56.176Z,100374.80
2022-12-14T11:04:46.580Z,100373.17
2022-12-14T11:07:18.586Z,100375.05
2022-12-14T11:09:48.543Z,100369.68
2022-12-14T11:12:28.780Z,100368.87
2022-12-14T11:15:03.439Z,100360.85
2022-12-14T11:17:44.358Z,100360.70
2022-12-14T11:20:23.148Z,100356.53
2022-12-14T11:22:58.047Z,100356.88
2022-12-14T11:25:41.697Z,100360.23
2022-12-14T11:28:38.148Z,100358.67
2022-12-14T11:31:11.217Z,100353.88
2022-12-14T11:33:50.463Z,100357.34
2022-12-14T11:36:30.060Z,100363.60
2022-12-14T11:39:08.160Z,100358.30
2022-12-14T11:41:39.648Z,100358.97
2022-12-14T11:44:29.876Z,100365.30
2022-12-14T11:47:02.269Z,100364.52
2022-12-14T11:49:32.847Z,100356.65
2022-12-14T11:52:05.200Z,100366.48
2022-12-14T11:54:33.835Z,100366.78
2022-12-14T11:57:07.045Z,100361.05
2022-12-14T11:59:56.780Z,100357.94
2022-12-14T12:02:41.325Z,100369.88
2022-12-14T12:05:13.119Z,100368.72
2022-12-14T12:07:51.274Z,100367.70
2022-12-14T12:10:35.967Z,100369.67
2022-12-14T12:13:07.207Z,100372.27
2022-12-14T12:15:38.872Z,100371.38
2022-12-14T12:18:23.255Z,100366.13
2022-12-14T12:21:13.530Z,100369.06
2022-12-14T12:24:01.201Z,100376.16
2022-12-14T12:26:42.725Z,100377.49
2022-12-14T12:29:47.543Z,100382.27
2022-12-14T12:32:44.140Z,100379.23
2022-12-14T12:35:27.702Z,100381.45
2022-12-14T12:37:59.863Z,100384.34
2022-12-14T12:40:33.029Z,100385.26
2022-12-14T12:43:08.976Z,100390.88
2022-12-14T12:45:44.544Z,100386.99
2022-12-14T12:48:23.285Z,100393.89
2022-12-14T12:50:58.393Z,100390.49
2022-12-14T12:53:31.569Z,100394.03
2022-12-14T12:56:03.946Z,100395.31
2022-12-14T12:58:33.669Z,100394.23
2022-12-14T13:01:18.145Z,100392.53
2022-12-14T13:03:51.382Z,100391.78
2022-12-14T13:06:31.706Z,100399.54
2022-12-14T13:09:16.824Z,100401.53
2022-12-14T13:11:46.728Z,100403.80
2022-12-14T13:14:19.384Z,100406.13
2022-12-14T13:16:49.104Z,100408.58
2022-12-14T13:21:54.625Z,100408.17
2022-12-14T13:24:25.099Z,100402.64
2022-12-14T13:27:16.896Z,100402.04
2022-12-14T13:29:55.239Z,100401.59
2022-12-14T13:32:37.574Z,100408.16
2022-12-14T13:35:16.205Z,100405.09
2022-12-14T13:38:03.675Z,100403.52
2022-12-14T13:40:51.179Z,100398.86
2022-12-14T13:43:26.198Z,100391.39
2022-12-14T13:45:56.315Z,100401.47
2022-12-14T13:48:31.958Z,100401.97
2022-12-14T13:51:04.056Z,100403.20
2022-12-14T13:53:50.486Z,100402.52
2022-12-14T13:56:21.836Z,100411.42
2022-12-14T13:58:52.578Z,100417.09
2022-12-14T14:01:51.067Z,100416.59
2022-12-14T14:04:29.712Z,100415.56
2022-12-14T14:07:20.241Z,100416.51
2022-12-14T14:09:58.942Z,100418.37
2022-12-14T14:12:34.128Z,100419.67
2022-12-14T14:15:24.312Z,100423.73
2022-12-14T14:17:52.282Z,100426.63
2022-12-14T14:20:36.960Z,100431.50
2022-12-14T14:23:18.441Z,100425.05
2022-12-14T14:25:52.903Z,100420.69
2022-12-14T14:28:23.938Z,100418.09
2022-12-14T14:30:58.228Z,100415.95
2022-12-14T14:33:49.292Z,100418.05
2022-12-14T14:36:27.441Z,100425.14
2022-12-14T14:38:57.478Z,100429.36
2022-12-14T14:41:29.332Z,100427.77
2022-12-14T14:44:01.204Z,100431.72
2022-12-14T14:46:39.477Z,100433.16
2022-12-14T14:49:24.098Z,100435.24
2022-12-14T14:51:53.683Z,100435.21
2022-12-14T14:56:57.224Z,100444.03
2022-12-14T14:59:29.688Z,100456.15
2022-12-14T15:02:01.376Z,100455.62
2022-12-14T15:04:45.112Z,100463.36
2022-12-14T15:07:23.317Z,100468.03
2022-12-14T15:10:07.790Z,100468.00
2022-12-14T15:12:43.517Z,100470.23
2022-12-14T15:15:25.886Z,100463.88
2022-12-14T15:17:55.168Z,100468.13
2022-12-14T15:20:27.900Z,100471.48
2022-12-14T15:22:57.461Z,100470.52
2022-12-14T15:25:29.740Z,100465.91
2022-12-14T15:28:00.429Z,100469.14
2022-12-14T15:30:30.896Z,100476.63
2022-12-14T15:33:06.034Z,100480.43
2022-12-14T15:35:40.183Z,100477.37
2022-12-14T15:38:15.427Z,100483.05
2022-12-14T15:40:50.380Z,100481.27
2022-12-14T15:43:22.337Z,100485.05
2022-12-14T15:45:54.094Z,100483.94
2022-12-14T15:48:25.701Z,100488.14
2022-12-14T15:51:06.737Z,100486.98
2022-12-14T15:53:41.812Z,100484.69
2022-12-14T15:56:34.582Z,100483.22
2022-12-14T15:59:06.726Z,100488.19
2022-12-14T16:01:40.899Z,100497.27
2022-12-14T16:04:16.399Z,100495.57
2022-12-14T16:07:09.456Z,100499.50
2022-12-14T16:09:43.164Z,100501.87
2022-12-14T16:12:24.675Z,100509.95
2022-12-14T16:14:59.957Z,100503.87
2022-12-14T16:17:32.358Z,100507.08
2022-12-14T16:20:04.858Z,100504.68
2022-12-14T16:22:34.253Z,100504.23
2022-12-14T16:25:09.187Z,100501.75
2022-12-14T16:27:43.748Z,100508.41
2022-12-14T16:30:29.888Z,100516.02
2022-12-14T16:33:20.150Z,100512.47
2022-12-14T16:36:04.431Z,100517.60
2022-12-14T16:38:39.912Z,100513.51
2022-12-14T16:41:09.477Z,100513.91
2022-12-14T16:43:41.382Z,100513.77
2022-12-14T16:46:13.332Z,100508.17
2022-12-14T16:48:45.858Z,100504.22
2022-12-14T16:51:32.983Z,100509.53
2022-12-14T16:53:56.531Z,100512.80
2022-12-14T16:56:28.917Z,100515.58
2022-12-14T16:59:10.645Z,100525.13
2022-12-14T17:01:42.057Z,100521.31
2022-12-14T17:04:13.597Z,100530.12
2022-12-14T17:06:50.924Z,100523.24
2022-12-14T17:09:25.693Z,100523.84
2022-12-14T17:11:58.305Z,100518.80
2022-12-14T17:14:29.074Z,100525.86
2022-12-14T17:17:02.274Z,100532.23
2022-12-14T17:19:37.913Z,100538.61
2022-12-14T17:22:10.297Z,100534.31
2022-12-14T17:24:40.143Z,100540.91
2022-12-14T17:27:11.532Z,100532.84
2022-12-14T17:29:41.069Z,100537.59
2022-12-14T17:32:13.534Z,100539.63
2022-12-14T17:34:45.103Z,100532.59
2022-12-14T17:37:16.739Z,100536.16
2022-12-14T17:39:46.448Z,100534.06
2022-12-14T17:42:17.785Z,100536.48
2022-12-14T17:44:58.103Z,100535.91
2022-12-14T17:47:27.384Z,100536.59
2022-12-14T17:49:56.903Z,100534.98
2022-12-14T17:52:29.112Z,100533.20
2022-12-14T17:54:57.933Z,100533.77
2022-12-14T17:57:27.807Z,100529.10
2022-12-14T18:00:14.930Z,100530.17
2022-12-14T18:02:45.804Z,100533.98
2022-12-14T18:05:21.178Z,100534.91
2022-12-14T18:07:50.480Z,100536.97
2022-12-14T18:10:20.227Z,100539.92
2022-12-14T18:12:50.304Z,100547.42
2022-12-14T18:15:31.519Z,100545.45
2022-12-14T18:18:01.244Z,100541.11
2022-12-14T18:20:30.714Z,100542.13
2022-12-14T18:23:00.551Z,100546.01
2022-12-14T18:25:35.141Z,100543.91
2022-12-14T18:28:07.495Z,100541.66
2022-12-14T18:30:41.910Z,100543.77
2022-12-14T18:33:14.776Z,100535.78
2022-12-14T18:35:45.206Z,100545.14
2022-12-14T18:38:14.916Z,100553.83
2022-12-14T18:40:49.750Z,100549.63
2022-12-14T18:43:19.991Z,100552.03
2022-12-14T18:45:48.649Z,100546.00
2022-12-14T18:48:18.154Z,100546.96
2022-12-14T18:50:49.743Z,100546.36
2022-12-14T18:53:20.485Z,100556.45
2022-12-14T18:55:50.429Z,100559.55
2022-12-14T18:58:28.404Z,100558.36
2022-12-14T19:01:00.248Z,100554.91
2022-12-14T19:03:32.537Z,100548.35
2022-12-14T19:06:42.454Z,100554.09
2022-12-14T19:08:39.990Z,100551.70
2022-12-14T19:11:33.590Z,100551.92
2022-12-14T19:14:03.231Z,100554.02
2022-12-14T19:16:32.680Z,100559.19
2022-12-14T19:19:02.082Z,100560.30
2022-12-14T19:21:31.859Z,100554.84
2022-12-14T19:24:01.243Z,100553.55
2022-12-14T19:26:32.691Z,100552.56
2022-12-14T19:29:02.115Z,100555.87
2022-12-14T19:31:31.885Z,100556.95
2022-12-14T19:34:01.280Z,100551.88
2022-12-14T19:36:30.555Z,100546.66
2022-12-14T19:39:00.751Z,100552.37
2022-12-14T19:41:30.378Z,100557.37
2022-12-14T19:44:00.537Z,100553.55
2022-12-14T19:46:30.001Z,100556.09
2022-12-14T19:48:59.975Z,100561.33
2022-12-14T19:51:29.271Z,100568.39
2022-12-14T19:53:58.719Z,100570.24
2022-12-14T19:56:28.297Z,100576.13
2022-12-14T19:59:00.776Z,100573.70
2022-12-14T20:01:35.494Z,100572.45
2022-12-14T20:04:06.009Z,100570.88
2022-12-14T20:06:35.748Z,100578.12
2022-12-14T20:09:07.796Z,100581.82
2022-12-14T20:11:37.170Z,100587.88
2022-12-14T20:14:06.467Z,100586.55
2022-12-14T20:16:35.856Z,100591.43
2022-12-14T20:19:06.575Z,100592.84
2022-12-14T20:21:36.092Z,100594.59
2022-12-14T20:24:05.950Z,100587.02
2022-12-14T20:26:35.205Z,100599.75
2022-12-14T20:29:06.188Z,100598.23
2022-12-14T20:31:37.314Z,100596.87
2022-12-14T20:34:08.112Z,100597.88
2022-12-14T20:36:37.653Z,100608.41
2022-12-14T20:39:07.654Z,100604.67
2022-12-14T20:41:37.530Z,100608.45
2022-12-14T20:44:12.067Z,100622.12
2022-12-14T20:46:44.578Z,100626.56
2022-12-14T20:49:20.280Z,100627.13
2022-12-14T20:51:50.115Z,100632.77
2022-12-14T20:54:22.180Z,100643.53
2022-12-14T20:56:51.814Z,100649.91
2022-12-14T20:59:21.128Z,100655.05
2022-12-14T21:01:55.889Z,100656.97
2022-12-14T21:04:22.053Z,100652.72
2022-12-14T21:06:52.015Z,100657.29
2022-12-14T21:09:21.355Z,100657.52
2022-12-14T21:12:09.395Z,100655.88
2022-12-14T21:14:42.735Z,100649.59
2022-12-14T21:17:12.434Z,100655.45
2022-12-14T21:19:42.056Z,100655.88
2022-12-14T21:22:16.697Z,100660.16
2022-12-14T21:25:02.978Z,100663.58
2022-12-14T21:27:22.747Z,100657.10
2022-12-14T21:29:52.263Z,100661.88
2022-12-14T21:32:22.849Z,100666.55
2022-12-14T21:34:52.519Z,100663.94
2022-12-14T21:37:22.268Z,100663.48
2022-12-14T21:39:55.021Z,100669.87
2022-12-14T21:42:26.571Z,100672.93
2022-12-14T21:44:56.903Z,100673.85
2022-12-14T21:47:29.559Z,100675.98
2022-12-14T21:49:59.680Z,100676.09
2022-12-14T21:52:29.928Z,100676.95
2022-12-14T21:54:59.797Z,100678.78
2022-12-14T21:57:49.836Z,100679.80
2022-12-14T22:00:18.175Z,100683.59
2022-12-14T22:02:47.635Z,100678.67
2022-12-14T22:05:17.078Z,100679.03
2022-12-14T22:07:46.921Z,100676.57
2022-12-14T22:10:21.287Z,100671.14
2022-12-14T22:12:47.426Z,100688.16
2022-12-14T22:15:17.122Z,100678.44
2022-12-14T22:17:46.342Z,100685.30
2022-12-14T22:20:16.202Z,100691.20
2022-12-14T22:22:45.420Z,100695.38
2022-12-14T22:25:15.518Z,100693.02
2022-12-14T22:27:49.651Z,100687.98
2022-12-14T22:30:17.639Z,100689.98
2022-12-14T22:32:48.141Z,100678.03
2022-12-14T22:35:18.194Z,100682.03
2022-12-14T22:37:47.562Z,100685.48
2022-12-14T22:40:16.979Z,100681.17
2022-12-14T22:42:46.330Z,100682.35
2022-12-14T22:45:15.606Z,100679.14
2022-12-14T22:47:44.868Z,100684.24
2022-12-14T22:50:14.209Z,100688.48
2022-12-14T22:52:44.031Z,100695.38
2022-12-14T22:55:15.510Z,100699.48
2022-12-14T22:57:45.346Z,100699.80
2022-12-14T23:00:16.916Z,100700.12
2022-12-14T23:02:48.525Z,100706.40
2022-12-14T23:05:18.987Z,100715.00
2022-12-14T23:07:48.516Z,100719.52
2022-12-14T23:10:36.099Z,100722.88
2022-12-14T23:13:24.095Z,100728.77
2022-12-14T23:16:11.766Z,100726.13
2022-12-14T23:18:59.151Z,100720.52
2022-12-14T23:21:46.727Z,100717.48
2022-12-14T23:24:33.974Z,100708.94
2022-12-14T23:27:21.319Z,100712.91
2022-12-14T23:30:08.274Z,100721.13
2022-12-14T23:32:56.162Z,100716.88
2022-12-14T23:35:43.551Z,100716.53
2022-12-14T23:38:30.803Z,100712.97
2022-12-14T23:41:19.709Z,100716.32
2022-12-14T23:44:06.713Z,100717.07
2022-12-14T23:46:54.157Z,100725.00
2022-12-14T23:49:41.727Z,100720.57
2022-12-14T23:52:28.657Z,100724.86
2022-12-14T23:55:16.160Z,100722.42
2022-12-14T23:58:03.558Z,100725.00
